CBJ5015 ZJHK-ZGSD
Flight info
| Callsign | CBJ5015 |
|---|---|
| Flight time | 0h 44m |
| Altitude | 18700 |
| Route | AGTEL W71 LH R200 BIGRO W552 LOVTA |
| Aircraft | A320/M-SDE2E3FGHIRWXY/LB2 |
Departure
| Time | 2026-05-04 11:06 |
|---|---|
| Airport | Haikou Meilan International Airport (ZJHK) |
Arrival
| Time | 2026-05-04 11:50 |
|---|---|
| Airport | Zhuhai Jinwan Airport (ZGSD) |
| Time | Latitude | Longitude | Altitude | Speed | Heading |
|---|---|---|---|---|---|
| 2026-05-04 10:50 | 19.93996 | 110.45803 | 77 ft | 0 kts | 0° |
| 2026-05-04 10:56 | 19.93941 | 110.45802 | 67 ft | 2 kts | 2° |
| 2026-05-04 10:56 | 19.93924 | 110.45801 | 66 ft | 2 kts | 360° |
| 2026-05-04 10:56 | 19.93907 | 110.45803 | 72 ft | 2 kts | 319° |
| 2026-05-04 10:57 | 19.93897 | 110.45816 | 74 ft | 2 kts | 300° |
| 2026-05-04 10:57 | 19.93896 | 110.45832 | 67 ft | 2 kts | 275° |
| 2026-05-04 10:57 | 19.93894 | 110.45839 | 67 ft | 0 kts | 268° |
| 2026-05-04 10:59 | 19.93894 | 110.45838 | 67 ft | 1 kts | 268° |
| 2026-05-04 10:59 | 19.93895 | 110.45820 | 73 ft | 4 kts | 271° |
| 2026-05-04 10:59 | 19.93895 | 110.45783 | 72 ft | 6 kts | 271° |
| 2026-05-04 11:00 | 19.93896 | 110.45726 | 78 ft | 9 kts | 270° |
| 2026-05-04 11:01 | 19.93801 | 110.45161 | 80 ft | 15 kts | 270° |
| 2026-05-04 11:02 | 19.93846 | 110.45083 | 83 ft | 16 kts | 2° |
| 2026-05-04 11:02 | 19.93969 | 110.45082 | 71 ft | 20 kts | 359° |
| 2026-05-04 11:05 | 19.95370 | 110.46890 | 150 ft | 164 kts | 90° |
| 2026-05-04 11:06 | 19.95363 | 110.48085 | 890 ft | 162 kts | 88° |
| 2026-05-04 11:06 | 19.95517 | 110.49274 | 1564 ft | 162 kts | 58° |
| 2026-05-04 11:06 | 19.96339 | 110.50087 | 2090 ft | 173 kts | 21° |
| 2026-05-04 11:06 | 19.97596 | 110.50152 | 2437 ft | 196 kts | 343° |
| 2026-05-04 11:08 | 20.08481 | 110.45289 | 7833 ft | 261 kts | 335° |
| 2026-05-04 11:10 | 20.20747 | 110.39841 | 13436 ft | 285 kts | 333° |
| 2026-05-04 11:12 | 20.35385 | 110.34309 | 16543 ft | 363 kts | 339° |
| 2026-05-04 11:12 | 20.37818 | 110.33505 | 17154 ft | 367 kts | 339° |
| 2026-05-04 11:12 | 20.40256 | 110.32690 | 17753 ft | 371 kts | 338° |
| 2026-05-04 11:12 | 20.42696 | 110.31860 | 18338 ft | 374 kts | 338° |
| 2026-05-04 11:13 | 20.45220 | 110.30991 | 18649 ft | 377 kts | 338° |
| 2026-05-04 11:13 | 20.47713 | 110.30130 | 18732 ft | 373 kts | 338° |
| 2026-05-04 11:13 | 20.50236 | 110.29537 | 18752 ft | 373 kts | 349° |
| 2026-05-04 11:13 | 20.52806 | 110.29501 | 18755 ft | 376 kts | 359° |
| 2026-05-04 11:14 | 20.53685 | 110.29559 | 18755 ft | 376 kts | 359° |
| 2026-05-04 11:16 | 20.78945 | 110.31228 | 18763 ft | 376 kts | 359° |
| 2026-05-04 11:16 | 20.81554 | 110.31397 | 18768 ft | 376 kts | 359° |
| 2026-05-04 11:16 | 20.84178 | 110.31570 | 18769 ft | 377 kts | 359° |
| 2026-05-04 11:17 | 20.86793 | 110.31742 | 18769 ft | 377 kts | 359° |
| 2026-05-04 11:17 | 20.89410 | 110.31915 | 18775 ft | 377 kts | 359° |
| 2026-05-04 11:19 | 21.07720 | 110.33067 | 18778 ft | 378 kts | 2° |
| 2026-05-04 11:19 | 21.10289 | 110.33788 | 18778 ft | 386 kts | 20° |
| 2026-05-04 11:19 | 21.12581 | 110.35301 | 18781 ft | 392 kts | 38° |
| 2026-05-04 11:19 | 21.14372 | 110.37515 | 18780 ft | 396 kts | 57° |
| 2026-05-04 11:20 | 21.15486 | 110.40207 | 18777 ft | 397 kts | 73° |
| 2026-05-04 11:20 | 21.16291 | 110.43027 | 18771 ft | 397 kts | 73° |
| 2026-05-04 11:20 | 21.17094 | 110.45865 | 18774 ft | 398 kts | 73° |
| 2026-05-04 11:20 | 21.17896 | 110.48701 | 18773 ft | 398 kts | 73° |
| 2026-05-04 11:22 | 21.23052 | 110.66499 | 18782 ft | 397 kts | 72° |
| 2026-05-04 11:22 | 21.23899 | 110.69321 | 18781 ft | 397 kts | 72° |
| 2026-05-04 11:23 | 21.24738 | 110.72133 | 18780 ft | 397 kts | 72° |
| 2026-05-04 11:23 | 21.25573 | 110.74949 | 18782 ft | 397 kts | 72° |
| 2026-05-04 11:24 | 21.30556 | 110.91843 | 18783 ft | 396 kts | 72° |
| 2026-05-04 11:25 | 21.31385 | 110.94661 | 18783 ft | 396 kts | 72° |
| 2026-05-04 11:25 | 21.32226 | 110.97515 | 18783 ft | 396 kts | 72° |
| 2026-05-04 11:25 | 21.33046 | 111.00297 | 18783 ft | 396 kts | 72° |
| 2026-05-04 11:26 | 21.34703 | 111.05935 | 18785 ft | 395 kts | 72° |
| 2026-05-04 11:27 | 21.40456 | 111.25608 | 18780 ft | 394 kts | 72° |
| 2026-05-04 11:28 | 21.41279 | 111.28412 | 18780 ft | 394 kts | 72° |
| 2026-05-04 11:28 | 21.42104 | 111.31229 | 18783 ft | 394 kts | 72° |
| 2026-05-04 11:28 | 21.42924 | 111.34043 | 18788 ft | 394 kts | 72° |
| 2026-05-04 11:28 | 21.43738 | 111.36845 | 18779 ft | 394 kts | 72° |
| 2026-05-04 11:29 | 21.44555 | 111.39654 | 18780 ft | 394 kts | 72° |
| 2026-05-04 11:29 | 21.45370 | 111.42466 | 18787 ft | 394 kts | 72° |
| 2026-05-04 11:29 | 21.46183 | 111.45275 | 18784 ft | 394 kts | 72° |
| 2026-05-04 11:29 | 21.47003 | 111.48097 | 18783 ft | 394 kts | 72° |
| 2026-05-04 11:31 | 21.52698 | 111.67739 | 18785 ft | 395 kts | 72° |
| 2026-05-04 11:33 | 21.58239 | 111.87533 | 18784 ft | 396 kts | 75° |
| 2026-05-04 11:33 | 21.58914 | 111.90370 | 18785 ft | 396 kts | 76° |
| 2026-05-04 11:33 | 21.59590 | 111.93263 | 18785 ft | 396 kts | 76° |
| 2026-05-04 11:34 | 21.60254 | 111.96095 | 18786 ft | 396 kts | 76° |
| 2026-05-04 11:34 | 21.60936 | 111.98974 | 18788 ft | 396 kts | 75° |
| 2026-05-04 11:34 | 21.61630 | 112.01872 | 18786 ft | 396 kts | 75° |
| 2026-05-04 11:34 | 21.62308 | 112.04688 | 18780 ft | 396 kts | 75° |
| 2026-05-04 11:35 | 21.63005 | 112.07574 | 18786 ft | 396 kts | 75° |
| 2026-05-04 11:35 | 21.63696 | 112.10436 | 18785 ft | 396 kts | 75° |
| 2026-05-04 11:35 | 21.64382 | 112.13297 | 18785 ft | 396 kts | 75° |
| 2026-05-04 11:35 | 21.64837 | 112.15199 | 18788 ft | 396 kts | 75° |
| 2026-05-04 11:36 | 21.65771 | 112.19079 | 18769 ft | 406 kts | 75° |
| 2026-05-04 11:36 | 21.66241 | 112.21039 | 18764 ft | 407 kts | 75° |
| 2026-05-04 11:36 | 21.66945 | 112.23988 | 18767 ft | 408 kts | 75° |
| 2026-05-04 11:36 | 21.67650 | 112.26931 | 18765 ft | 408 kts | 75° |
| 2026-05-04 11:37 | 21.68361 | 112.29901 | 18768 ft | 408 kts | 75° |
| 2026-05-04 11:37 | 21.69065 | 112.32850 | 18763 ft | 408 kts | 75° |
| 2026-05-04 11:37 | 21.69771 | 112.35820 | 18764 ft | 408 kts | 75° |
| 2026-05-04 11:37 | 21.70702 | 112.39731 | 18768 ft | 408 kts | 75° |
| 2026-05-04 11:38 | 21.71171 | 112.41695 | 18766 ft | 407 kts | 75° |
| 2026-05-04 11:38 | 21.71873 | 112.44641 | 18769 ft | 408 kts | 75° |
| 2026-05-04 11:38 | 21.72576 | 112.47599 | 18770 ft | 408 kts | 75° |
| 2026-05-04 11:38 | 21.73280 | 112.50571 | 18771 ft | 408 kts | 75° |
| 2026-05-04 11:39 | 21.73970 | 112.53490 | 18473 ft | 401 kts | 75° |
| 2026-05-04 11:39 | 21.74657 | 112.56394 | 17996 ft | 398 kts | 75° |
| 2026-05-04 11:41 | 21.79632 | 112.76827 | 14470 ft | 379 kts | 75° |
| 2026-05-04 11:41 | 21.80296 | 112.79571 | 14010 ft | 376 kts | 76° |
| 2026-05-04 11:41 | 21.80949 | 112.82283 | 13525 ft | 373 kts | 76° |
| 2026-05-04 11:41 | 21.81589 | 112.84974 | 13018 ft | 371 kts | 76° |
| 2026-05-04 11:42 | 21.82011 | 112.86767 | 12684 ft | 369 kts | 76° |
| 2026-05-04 11:42 | 21.82843 | 112.90331 | 12020 ft | 365 kts | 76° |
| 2026-05-04 11:42 | 21.83251 | 112.92074 | 11706 ft | 364 kts | 76° |
| 2026-05-04 11:42 | 21.84059 | 112.95513 | 11065 ft | 347 kts | 76° |
| 2026-05-04 11:43 | 21.84639 | 112.97975 | 10598 ft | 334 kts | 76° |
| 2026-05-04 11:43 | 21.84991 | 113.00337 | 10142 ft | 321 kts | 94° |
| 2026-05-04 11:43 | 21.84721 | 113.02683 | 9662 ft | 310 kts | 100° |
| 2026-05-04 11:43 | 21.84395 | 113.04941 | 9156 ft | 302 kts | 100° |
| 2026-05-04 11:44 | 21.84168 | 113.06438 | 8818 ft | 297 kts | 101° |
| 2026-05-04 11:44 | 21.83726 | 113.09314 | 8166 ft | 289 kts | 101° |
| 2026-05-04 11:44 | 21.83512 | 113.10706 | 7852 ft | 286 kts | 100° |
| 2026-05-04 11:44 | 21.83190 | 113.12804 | 7368 ft | 281 kts | 100° |
| 2026-05-04 11:45 | 21.82877 | 113.14856 | 6896 ft | 276 kts | 100° |
| 2026-05-04 11:45 | 21.82614 | 113.16892 | 6432 ft | 271 kts | 90° |
| 2026-05-04 11:45 | 21.83049 | 113.18783 | 5947 ft | 265 kts | 57° |
| 2026-05-04 11:45 | 21.84259 | 113.20222 | 5493 ft | 257 kts | 40° |
| 2026-05-04 11:46 | 21.85556 | 113.21528 | 5011 ft | 254 kts | 43° |
| 2026-05-04 11:46 | 21.86804 | 113.22875 | 4518 ft | 251 kts | 46° |
| 2026-05-04 11:46 | 21.87995 | 113.24228 | 4018 ft | 247 kts | 45° |
| 2026-05-04 11:46 | 21.89199 | 113.25526 | 3537 ft | 243 kts | 45° |
| 2026-05-04 11:47 | 21.90389 | 113.26781 | 2992 ft | 235 kts | 46° |
| 2026-05-04 11:47 | 21.91535 | 113.27990 | 2354 ft | 225 kts | 46° |
| 2026-05-04 11:47 | 21.92604 | 113.29121 | 1909 ft | 209 kts | 46° |
| 2026-05-04 11:47 | 21.93596 | 113.30169 | 1639 ft | 189 kts | 46° |
| 2026-05-04 11:48 | 21.94495 | 113.31121 | 1380 ft | 172 kts | 45° |
| 2026-05-04 11:48 | 21.95280 | 113.31952 | 1167 ft | 149 kts | 46° |
| 2026-05-04 11:48 | 21.95974 | 113.32687 | 978 ft | 135 kts | 45° |
| 2026-05-04 11:48 | 21.96634 | 113.33387 | 808 ft | 131 kts | 45° |
| 2026-05-04 11:49 | 21.97282 | 113.34068 | 651 ft | 129 kts | 44° |
| 2026-05-04 11:49 | 21.97920 | 113.34757 | 471 ft | 129 kts | 43° |
| 2026-05-04 11:49 | 21.98565 | 113.35435 | 304 ft | 131 kts | 43° |
| 2026-05-04 11:49 | 21.99210 | 113.36116 | 111 ft | 129 kts | 41° |
| 2026-05-04 11:50 | 21.99784 | 113.36721 | 32 ft | 118 kts | 43° |
| 2026-05-04 11:50 | 22.00248 | 113.37212 | 27 ft | 69 kts | 45° |
| 2026-05-04 11:50 | 22.00485 | 113.37465 | 28 ft | 39 kts | 45° |
| 2026-05-04 11:50 | 22.00654 | 113.37631 | 30 ft | 25 kts | 36° |
| 2026-05-04 11:51 | 22.00810 | 113.37703 | 28 ft | 17 kts | 15° |
| 2026-05-04 11:51 | 22.00933 | 113.37738 | 28 ft | 19 kts | 14° |
| 2026-05-04 11:51 | 22.01025 | 113.37687 | 28 ft | 15 kts | 297° |
| 2026-05-04 11:51 | 22.01064 | 113.37608 | 28 ft | 10 kts | 239° |
| 2026-05-04 11:52 | 22.01016 | 113.37553 | 28 ft | 10 kts | 226° |
| 2026-05-04 11:52 | 22.00962 | 113.37495 | 28 ft | 12 kts | 224° |
| 2026-05-04 11:52 | 22.00913 | 113.37430 | 28 ft | 9 kts | 262° |
| 2026-05-04 11:52 | 22.00953 | 113.37372 | 28 ft | 8 kts | 319° |
| 2026-05-04 11:53 | 22.01006 | 113.37382 | 28 ft | 7 kts | 45° |
| 2026-05-04 11:53 | 22.01024 | 113.37403 | 28 ft | 1 kts | 45° |
| 2026-05-04 11:53 | 22.01029 | 113.37408 | 28 ft | 0 kts | 45° |